EJM912 KABE-KMLB
Flight info
| Callsign | EJM912 |
|---|---|
| Flight time | 1h 54m |
| Altitude | 40000 |
| Route | ETX LRP GVE Q75 GSO Q83 ROYCO Q85 LPERD OMN BITHO7 |
| Aircraft | C700/M-SBDGHM1RWXY/LB2 |
Departure
| Time | 2026-05-06 01:38 |
|---|---|
| Airport | Lehigh Valley International Airport (KABE) |
Arrival
| Time | 2026-05-06 03:32 |
|---|---|
| Airport | Melbourne Orlando International Airport (KMLB) |
| Time | Latitude | Longitude | Altitude | Speed | Heading |
|---|---|---|---|---|---|
| 2026-05-06 01:17 | 40.65892 | -75.43842 | 392 ft | 0 kts | 311° |
| 2026-05-06 01:28 | 40.65887 | -75.43835 | 392 ft | 3 kts | 311° |
| 2026-05-06 01:29 | 40.65875 | -75.43816 | 391 ft | 3 kts | 311° |
| 2026-05-06 01:29 | 40.65869 | -75.43807 | 391 ft | 0 kts | 311° |
| 2026-05-06 01:30 | 40.65870 | -75.43808 | 391 ft | 0 kts | 321° |
| 2026-05-06 01:30 | 40.65880 | -75.43810 | 391 ft | 5 kts | 345° |
| 2026-05-06 01:31 | 40.65889 | -75.43824 | 392 ft | 0 kts | 260° |
| 2026-05-06 01:31 | 40.65887 | -75.43825 | 392 ft | 1 kts | 236° |
| 2026-05-06 01:31 | 40.65872 | -75.43811 | 391 ft | 5 kts | 133° |
| 2026-05-06 01:32 | 40.65869 | -75.43807 | 391 ft | 0 kts | 134° |
| 2026-05-06 01:33 | 40.65838 | -75.43765 | 390 ft | 10 kts | 131° |
| 2026-05-06 01:33 | 40.65857 | -75.43686 | 389 ft | 12 kts | 51° |
| 2026-05-06 01:34 | 40.65917 | -75.43587 | 387 ft | 16 kts | 51° |
| 2026-05-06 01:34 | 40.65982 | -75.43464 | 386 ft | 16 kts | 79° |
| 2026-05-06 01:34 | 40.65996 | -75.43297 | 382 ft | 21 kts | 84° |
| 2026-05-06 01:34 | 40.66010 | -75.43125 | 378 ft | 13 kts | 87° |
| 2026-05-06 01:35 | 40.66005 | -75.43099 | 378 ft | 0 kts | 116° |
| 2026-05-06 01:37 | 40.65989 | -75.43074 | 378 ft | 9 kts | 139° |
| 2026-05-06 01:37 | 40.65935 | -75.43043 | 379 ft | 7 kts | 212° |
| 2026-05-06 01:37 | 40.65848 | -75.43181 | 380 ft | 53 kts | 231° |
| 2026-05-06 01:38 | 40.65406 | -75.43881 | 464 ft | 136 kts | 224° |
| 2026-05-06 01:38 | 40.64717 | -75.44947 | 1254 ft | 170 kts | 227° |
| 2026-05-06 01:38 | 40.64002 | -75.46134 | 2109 ft | 167 kts | 228° |
| 2026-05-06 01:38 | 40.63283 | -75.47381 | 2846 ft | 170 kts | 230° |
| 2026-05-06 01:39 | 40.62466 | -75.48706 | 3011 ft | 199 kts | 230° |
| 2026-05-06 01:39 | 40.61951 | -75.50547 | 3343 ft | 234 kts | 254° |
| 2026-05-06 01:39 | 40.61597 | -75.52611 | 5089 ft | 230 kts | 250° |
| 2026-05-06 01:39 | 40.61121 | -75.54627 | 6832 ft | 234 kts | 250° |
| 2026-05-06 01:40 | 40.60647 | -75.56718 | 8366 ft | 243 kts | 252° |
| 2026-05-06 01:40 | 40.60176 | -75.58905 | 9868 ft | 253 kts | 253° |
| 2026-05-06 01:40 | 40.59677 | -75.61212 | 11059 ft | 275 kts | 253° |
| 2026-05-06 01:40 | 40.59140 | -75.63669 | 12420 ft | 286 kts | 253° |
| 2026-05-06 01:41 | 40.58539 | -75.66180 | 14016 ft | 292 kts | 249° |
| 2026-05-06 01:41 | 40.57591 | -75.68576 | 15384 ft | 299 kts | 239° |
| 2026-05-06 01:41 | 40.56323 | -75.70769 | 16790 ft | 305 kts | 230° |
| 2026-05-06 01:41 | 40.54806 | -75.72779 | 18160 ft | 312 kts | 226° |
| 2026-05-06 01:42 | 40.53268 | -75.74823 | 19342 ft | 317 kts | 227° |
| 2026-05-06 01:42 | 40.51710 | -75.76903 | 20436 ft | 322 kts | 227° |
| 2026-05-06 01:42 | 40.50121 | -75.79009 | 21485 ft | 327 kts | 226° |
| 2026-05-06 01:42 | 40.48504 | -75.81148 | 22512 ft | 332 kts | 226° |
| 2026-05-06 01:43 | 40.46866 | -75.83318 | 23541 ft | 337 kts | 226° |
| 2026-05-06 01:43 | 40.45196 | -75.85529 | 24372 ft | 344 kts | 227° |
| 2026-05-06 01:43 | 40.43496 | -75.87779 | 25189 ft | 350 kts | 227° |
| 2026-05-06 01:43 | 40.41765 | -75.90066 | 25972 ft | 356 kts | 227° |
| 2026-05-06 01:44 | 40.40003 | -75.92393 | 26762 ft | 362 kts | 227° |
| 2026-05-06 01:44 | 40.38213 | -75.94755 | 27529 ft | 368 kts | 228° |
| 2026-05-06 01:44 | 40.36396 | -75.97151 | 28288 ft | 374 kts | 228° |
| 2026-05-06 01:44 | 40.34547 | -75.99587 | 29045 ft | 380 kts | 228° |
| 2026-05-06 01:45 | 40.32670 | -76.02056 | 29794 ft | 385 kts | 228° |
| 2026-05-06 01:45 | 40.30761 | -76.04568 | 30443 ft | 391 kts | 229° |
| 2026-05-06 01:45 | 40.28832 | -76.07101 | 31076 ft | 395 kts | 229° |
| 2026-05-06 01:45 | 40.26875 | -76.09672 | 31681 ft | 400 kts | 229° |
| 2026-05-06 01:46 | 40.24925 | -76.12230 | 32248 ft | 405 kts | 229° |
| 2026-05-06 01:46 | 40.22925 | -76.14850 | 32803 ft | 409 kts | 229° |
| 2026-05-06 01:46 | 40.20902 | -76.17498 | 33449 ft | 411 kts | 229° |
| 2026-05-06 01:46 | 40.18886 | -76.20133 | 34145 ft | 410 kts | 229° |
| 2026-05-06 01:47 | 40.16870 | -76.22768 | 34716 ft | 410 kts | 230° |
| 2026-05-06 01:47 | 40.14853 | -76.25405 | 35284 ft | 410 kts | 231° |
| 2026-05-06 01:47 | 40.12831 | -76.28030 | 35851 ft | 410 kts | 230° |
| 2026-05-06 01:47 | 40.10608 | -76.30414 | 36382 ft | 417 kts | 223° |
| 2026-05-06 01:48 | 40.08218 | -76.32581 | 36869 ft | 418 kts | 223° |
| 2026-05-06 01:48 | 40.05839 | -76.34763 | 37344 ft | 418 kts | 224° |
| 2026-05-06 01:48 | 40.03463 | -76.36952 | 37795 ft | 418 kts | 224° |
| 2026-05-06 01:48 | 40.01079 | -76.39131 | 38222 ft | 419 kts | 225° |
| 2026-05-06 01:49 | 39.98690 | -76.41306 | 38607 ft | 419 kts | 225° |
| 2026-05-06 01:49 | 39.96295 | -76.43489 | 38943 ft | 419 kts | 225° |
| 2026-05-06 01:49 | 39.91499 | -76.47864 | 39607 ft | 417 kts | 225° |
| 2026-05-06 01:50 | 39.89120 | -76.50028 | 39857 ft | 419 kts | 225° |
| 2026-05-06 01:50 | 39.86715 | -76.52223 | 39864 ft | 426 kts | 225° |
| 2026-05-06 01:50 | 39.81761 | -76.56721 | 39867 ft | 440 kts | 224° |
| 2026-05-06 01:51 | 39.76689 | -76.61318 | 39875 ft | 453 kts | 224° |
| 2026-05-06 01:51 | 39.71444 | -76.66063 | 39886 ft | 464 kts | 224° |
| 2026-05-06 01:52 | 39.66110 | -76.70874 | 39903 ft | 466 kts | 224° |
| 2026-05-06 01:52 | 39.60794 | -76.75665 | 39905 ft | 462 kts | 224° |
| 2026-05-06 01:53 | 39.55509 | -76.80425 | 39906 ft | 465 kts | 224° |
| 2026-05-06 01:53 | 39.50168 | -76.85218 | 39904 ft | 469 kts | 224° |
| 2026-05-06 01:54 | 39.44839 | -76.89991 | 39902 ft | 467 kts | 224° |
| 2026-05-06 01:54 | 39.39507 | -76.94762 | 39898 ft | 464 kts | 224° |
| 2026-05-06 01:55 | 39.34177 | -76.99525 | 39916 ft | 467 kts | 224° |
| 2026-05-06 01:55 | 39.28833 | -77.04284 | 39921 ft | 469 kts | 224° |
| 2026-05-06 01:56 | 39.23471 | -77.09052 | 39916 ft | 467 kts | 224° |
| 2026-05-06 01:56 | 39.18123 | -77.13801 | 39916 ft | 466 kts | 224° |
| 2026-05-06 01:57 | 39.12785 | -77.18530 | 39917 ft | 465 kts | 224° |
| 2026-05-06 01:57 | 39.07459 | -77.23242 | 39912 ft | 464 kts | 224° |
| 2026-05-06 01:58 | 39.02123 | -77.27954 | 39908 ft | 467 kts | 224° |
| 2026-05-06 01:58 | 38.96749 | -77.32688 | 39906 ft | 468 kts | 224° |
| 2026-05-06 01:59 | 38.91395 | -77.37395 | 39908 ft | 464 kts | 224° |
| 2026-05-06 01:59 | 38.86116 | -77.42033 | 39909 ft | 463 kts | 224° |
| 2026-05-06 02:00 | 38.80784 | -77.46706 | 39918 ft | 465 kts | 224° |
| 2026-05-06 02:00 | 38.75429 | -77.51388 | 39917 ft | 466 kts | 224° |
| 2026-05-06 02:01 | 38.70065 | -77.56070 | 39920 ft | 465 kts | 224° |
| 2026-05-06 02:01 | 38.64738 | -77.60712 | 39916 ft | 462 kts | 224° |
| 2026-05-06 02:02 | 38.59424 | -77.65337 | 39936 ft | 462 kts | 224° |
| 2026-05-06 02:02 | 38.54090 | -77.69969 | 39939 ft | 464 kts | 224° |
| 2026-05-06 02:03 | 38.48761 | -77.74586 | 39939 ft | 466 kts | 224° |
| 2026-05-06 02:03 | 38.43401 | -77.79220 | 39947 ft | 463 kts | 224° |
| 2026-05-06 02:04 | 38.38089 | -77.83810 | 39940 ft | 461 kts | 224° |
| 2026-05-06 02:04 | 38.32752 | -77.88413 | 39939 ft | 465 kts | 224° |
| 2026-05-06 02:05 | 38.27379 | -77.93030 | 39945 ft | 464 kts | 224° |
| 2026-05-06 02:05 | 38.22047 | -77.97611 | 39943 ft | 461 kts | 224° |
| 2026-05-06 02:06 | 38.16720 | -78.02181 | 39948 ft | 463 kts | 224° |
| 2026-05-06 02:06 | 38.11399 | -78.06732 | 39936 ft | 465 kts | 224° |
| 2026-05-06 02:07 | 38.06027 | -78.11323 | 39936 ft | 465 kts | 224° |
| 2026-05-06 02:07 | 38.00677 | -78.15941 | 39936 ft | 461 kts | 227° |
| 2026-05-06 02:08 | 37.95567 | -78.20860 | 39950 ft | 461 kts | 227° |
| 2026-05-06 02:08 | 37.90442 | -78.25729 | 39941 ft | 459 kts | 227° |
| 2026-05-06 02:09 | 37.85351 | -78.30599 | 39934 ft | 458 kts | 227° |
| 2026-05-06 02:09 | 37.80292 | -78.35404 | 39929 ft | 457 kts | 227° |
| 2026-05-06 02:10 | 37.75215 | -78.40232 | 39932 ft | 457 kts | 227° |
| 2026-05-06 02:10 | 37.70113 | -78.45071 | 39937 ft | 460 kts | 227° |
| 2026-05-06 02:11 | 37.65810 | -78.49144 | 39944 ft | 462 kts | 227° |
| 2026-05-06 02:11 | 37.60678 | -78.53993 | 39948 ft | 460 kts | 227° |
| 2026-05-06 02:12 | 37.55599 | -78.58785 | 39949 ft | 458 kts | 227° |
| 2026-05-06 02:12 | 37.50491 | -78.63601 | 39952 ft | 458 kts | 227° |
| 2026-05-06 02:13 | 37.45373 | -78.68410 | 39955 ft | 460 kts | 227° |
| 2026-05-06 02:13 | 37.40236 | -78.73233 | 39953 ft | 461 kts | 227° |
| 2026-05-06 02:14 | 37.35080 | -78.78064 | 39955 ft | 462 kts | 227° |
| 2026-05-06 02:14 | 37.29937 | -78.82871 | 39958 ft | 460 kts | 227° |
| 2026-05-06 02:15 | 37.24841 | -78.87633 | 39971 ft | 458 kts | 226° |
| 2026-05-06 02:15 | 37.19712 | -78.92414 | 39962 ft | 459 kts | 226° |
| 2026-05-06 02:16 | 37.14565 | -78.97206 | 39970 ft | 462 kts | 226° |
| 2026-05-06 02:16 | 37.09417 | -79.01984 | 39964 ft | 464 kts | 226° |
| 2026-05-06 02:17 | 37.04243 | -79.06783 | 39959 ft | 462 kts | 226° |
| 2026-05-06 02:17 | 36.99087 | -79.11556 | 39958 ft | 460 kts | 226° |
| 2026-05-06 02:18 | 36.93950 | -79.16305 | 39956 ft | 459 kts | 226° |
| 2026-05-06 02:18 | 36.88789 | -79.21069 | 39960 ft | 462 kts | 226° |
| 2026-05-06 02:19 | 36.83627 | -79.25821 | 39970 ft | 464 kts | 226° |
| 2026-05-06 02:19 | 36.78443 | -79.30584 | 39982 ft | 461 kts | 226° |
| 2026-05-06 02:20 | 36.70705 | -79.37690 | 39993 ft | 462 kts | 226° |
| 2026-05-06 02:21 | 36.65512 | -79.42443 | 39998 ft | 465 kts | 226° |
| 2026-05-06 02:21 | 36.60298 | -79.47205 | 40000 ft | 463 kts | 226° |
| 2026-05-06 02:22 | 36.55145 | -79.51907 | 39994 ft | 461 kts | 226° |
| 2026-05-06 02:22 | 36.49979 | -79.56614 | 39986 ft | 460 kts | 226° |
| 2026-05-06 02:23 | 36.44808 | -79.61318 | 39997 ft | 462 kts | 226° |
| 2026-05-06 02:23 | 36.39603 | -79.66042 | 40000 ft | 464 kts | 226° |
| 2026-05-06 02:24 | 36.34378 | -79.70775 | 40002 ft | 464 kts | 226° |
| 2026-05-06 02:24 | 36.29189 | -79.75470 | 40000 ft | 461 kts | 226° |
| 2026-05-06 02:25 | 36.23998 | -79.80158 | 40008 ft | 460 kts | 226° |
| 2026-05-06 02:25 | 36.18806 | -79.84843 | 40016 ft | 464 kts | 226° |
| 2026-05-06 02:26 | 36.13572 | -79.89551 | 40018 ft | 465 kts | 225° |
| 2026-05-06 02:26 | 36.08386 | -79.94210 | 40020 ft | 461 kts | 226° |
| 2026-05-06 02:27 | 36.02878 | -79.98419 | 40016 ft | 475 kts | 215° |
| 2026-05-06 02:27 | 35.96660 | -80.01542 | 40012 ft | 484 kts | 211° |
| 2026-05-06 02:28 | 35.90438 | -80.04639 | 40007 ft | 485 kts | 211° |
| 2026-05-06 02:28 | 35.84190 | -80.07707 | 40015 ft | 481 kts | 212° |
| 2026-05-06 02:29 | 35.77977 | -80.10781 | 40022 ft | 482 kts | 211° |
| 2026-05-06 02:29 | 35.71724 | -80.13853 | 40020 ft | 486 kts | 211° |
| 2026-05-06 02:30 | 35.65442 | -80.16936 | 40019 ft | 485 kts | 211° |
| 2026-05-06 02:30 | 35.59192 | -80.20000 | 40053 ft | 482 kts | 211° |
| 2026-05-06 02:31 | 35.52961 | -80.23054 | 40066 ft | 484 kts | 211° |
| 2026-05-06 02:31 | 35.46722 | -80.26100 | 40070 ft | 487 kts | 211° |
| 2026-05-06 02:32 | 35.40407 | -80.29112 | 40068 ft | 490 kts | 208° |
| 2026-05-06 02:32 | 35.33625 | -80.30832 | 40063 ft | 501 kts | 198° |
| 2026-05-06 02:33 | 35.26714 | -80.32155 | 40049 ft | 504 kts | 198° |
| 2026-05-06 02:33 | 35.24410 | -80.32598 | 40043 ft | 505 kts | 198° |
| 2026-05-06 02:34 | 35.12840 | -80.34776 | 40035 ft | 504 kts | 198° |
| 2026-05-06 02:34 | 35.05930 | -80.36085 | 40030 ft | 502 kts | 198° |
| 2026-05-06 02:35 | 34.99003 | -80.37391 | 40039 ft | 504 kts | 198° |
| 2026-05-06 02:35 | 34.92059 | -80.38699 | 40035 ft | 505 kts | 198° |
| 2026-05-06 02:36 | 34.85100 | -80.40007 | 40036 ft | 507 kts | 198° |
| 2026-05-06 02:36 | 34.78129 | -80.41315 | 40038 ft | 507 kts | 198° |
| 2026-05-06 02:37 | 34.71172 | -80.42616 | 40040 ft | 504 kts | 198° |
| 2026-05-06 02:37 | 34.64240 | -80.43914 | 40039 ft | 503 kts | 198° |
| 2026-05-06 02:38 | 34.57304 | -80.45210 | 40046 ft | 505 kts | 198° |
| 2026-05-06 02:38 | 34.50384 | -80.46499 | 40058 ft | 507 kts | 198° |
| 2026-05-06 02:39 | 34.43407 | -80.47796 | 40065 ft | 506 kts | 198° |
| 2026-05-06 02:39 | 34.36450 | -80.49088 | 40070 ft | 505 kts | 198° |
| 2026-05-06 02:40 | 34.29520 | -80.50374 | 40074 ft | 503 kts | 198° |
| 2026-05-06 02:40 | 34.22715 | -80.52002 | 40076 ft | 495 kts | 204° |
| 2026-05-06 02:41 | 34.15997 | -80.54011 | 40077 ft | 499 kts | 203° |
| 2026-05-06 02:41 | 34.09253 | -80.56029 | 40050 ft | 498 kts | 204° |
| 2026-05-06 02:42 | 34.02521 | -80.58045 | 40057 ft | 496 kts | 204° |
| 2026-05-06 02:42 | 33.95833 | -80.60039 | 40054 ft | 494 kts | 204° |
| 2026-05-06 02:43 | 33.89180 | -80.62028 | 40051 ft | 497 kts | 204° |
| 2026-05-06 02:43 | 33.82456 | -80.64024 | 40042 ft | 499 kts | 204° |
| 2026-05-06 02:44 | 33.75718 | -80.66027 | 40044 ft | 498 kts | 204° |
| 2026-05-06 02:44 | 33.69005 | -80.68016 | 40048 ft | 495 kts | 204° |
| 2026-05-06 02:45 | 33.62330 | -80.69996 | 40069 ft | 494 kts | 204° |
| 2026-05-06 02:45 | 33.55636 | -80.71976 | 40077 ft | 496 kts | 204° |
| 2026-05-06 02:46 | 33.48914 | -80.73959 | 40084 ft | 498 kts | 204° |
| 2026-05-06 02:46 | 33.42196 | -80.75933 | 40083 ft | 499 kts | 204° |
| 2026-05-06 02:47 | 33.35461 | -80.77911 | 40082 ft | 497 kts | 204° |
| 2026-05-06 02:47 | 33.28756 | -80.79877 | 40077 ft | 495 kts | 204° |
| 2026-05-06 02:48 | 33.22040 | -80.81846 | 40073 ft | 498 kts | 204° |
| 2026-05-06 02:48 | 33.15282 | -80.83820 | 40074 ft | 501 kts | 204° |
| 2026-05-06 02:49 | 33.08551 | -80.85782 | 40081 ft | 500 kts | 204° |
| 2026-05-06 02:49 | 33.01796 | -80.87751 | 40078 ft | 498 kts | 204° |
| 2026-05-06 02:50 | 32.95104 | -80.89700 | 40078 ft | 498 kts | 204° |
| 2026-05-06 02:50 | 32.88341 | -80.91665 | 40080 ft | 502 kts | 204° |
| 2026-05-06 02:51 | 32.81540 | -80.93635 | 40080 ft | 502 kts | 204° |
| 2026-05-06 02:51 | 32.74758 | -80.95598 | 40070 ft | 500 kts | 205° |
| 2026-05-06 02:52 | 32.68010 | -80.97551 | 40068 ft | 499 kts | 205° |
| 2026-05-06 02:52 | 32.61246 | -80.99504 | 40070 ft | 502 kts | 205° |
| 2026-05-06 02:53 | 32.54465 | -81.01406 | 40068 ft | 509 kts | 201° |
| 2026-05-06 02:53 | 32.50904 | -81.01903 | 40076 ft | 520 kts | 193° |
| 2026-05-06 02:53 | 32.47263 | -81.01989 | 40073 ft | 524 kts | 190° |
| 2026-05-06 02:54 | 32.39988 | -81.02121 | 40071 ft | 521 kts | 191° |
| 2026-05-06 02:54 | 32.32736 | -81.02252 | 40074 ft | 522 kts | 191° |
| 2026-05-06 02:55 | 32.25456 | -81.02379 | 40079 ft | 524 kts | 191° |
| 2026-05-06 02:55 | 32.18145 | -81.02510 | 40077 ft | 526 kts | 191° |
| 2026-05-06 02:56 | 32.10875 | -81.02635 | 40039 ft | 524 kts | 191° |
| 2026-05-06 02:56 | 32.03590 | -81.02766 | 40038 ft | 523 kts | 191° |
| 2026-05-06 02:57 | 31.96314 | -81.02906 | 40035 ft | 522 kts | 192° |
| 2026-05-06 02:57 | 31.89025 | -81.03144 | 40038 ft | 526 kts | 191° |
| 2026-05-06 02:58 | 31.81693 | -81.03320 | 40054 ft | 528 kts | 191° |
| 2026-05-06 02:58 | 31.75602 | -81.03496 | 40051 ft | 526 kts | 192° |
| 2026-05-06 02:59 | 31.68298 | -81.03691 | 40053 ft | 523 kts | 191° |
| 2026-05-06 02:59 | 31.61096 | -81.04291 | 40061 ft | 510 kts | 201° |
| 2026-05-06 03:00 | 31.54441 | -81.06630 | 40059 ft | 490 kts | 215° |
| 2026-05-06 03:00 | 31.48452 | -81.10207 | 40064 ft | 481 kts | 220° |
| 2026-05-06 03:01 | 31.42569 | -81.13789 | 40067 ft | 478 kts | 220° |
| 2026-05-06 03:01 | 31.36673 | -81.17406 | 40072 ft | 479 kts | 219° |
| 2026-05-06 03:02 | 31.30667 | -81.20937 | 40068 ft | 484 kts | 219° |
| 2026-05-06 03:02 | 31.24668 | -81.24514 | 40073 ft | 485 kts | 219° |
| 2026-05-06 03:02 | 31.21533 | -81.26088 | 40076 ft | 496 kts | 212° |
| 2026-05-06 03:03 | 31.18199 | -81.27260 | 40078 ft | 506 kts | 205° |
| 2026-05-06 03:03 | 31.14692 | -81.27997 | 40076 ft | 517 kts | 198° |
| 2026-05-06 03:03 | 31.11071 | -81.28257 | 40074 ft | 527 kts | 190° |
| 2026-05-06 03:04 | 31.03757 | -81.28219 | 40073 ft | 530 kts | 190° |
| 2026-05-06 03:04 | 30.96359 | -81.28215 | 40073 ft | 534 kts | 189° |
| 2026-05-06 03:05 | 30.88941 | -81.28182 | 40071 ft | 530 kts | 189° |
| 2026-05-06 03:05 | 30.81575 | -81.28172 | 40081 ft | 528 kts | 189° |
| 2026-05-06 03:06 | 30.74190 | -81.28152 | 40084 ft | 531 kts | 189° |
| 2026-05-06 03:06 | 30.66777 | -81.28133 | 40085 ft | 533 kts | 189° |
| 2026-05-06 03:07 | 30.59391 | -81.28005 | 40086 ft | 538 kts | 184° |
| 2026-05-06 03:07 | 30.51929 | -81.27004 | 40080 ft | 538 kts | 182° |
| 2026-05-06 03:08 | 30.44487 | -81.26062 | 40085 ft | 539 kts | 182° |
| 2026-05-06 03:08 | 30.37011 | -81.25061 | 40082 ft | 542 kts | 182° |
| 2026-05-06 03:09 | 30.29501 | -81.24093 | 40078 ft | 541 kts | 182° |
| 2026-05-06 03:09 | 30.22034 | -81.23109 | 40076 ft | 538 kts | 182° |
| 2026-05-06 03:10 | 30.14642 | -81.22155 | 40085 ft | 538 kts | 182° |
| 2026-05-06 03:10 | 30.07174 | -81.21180 | 40093 ft | 542 kts | 181° |
| 2026-05-06 03:11 | 29.99683 | -81.20208 | 40091 ft | 542 kts | 181° |
| 2026-05-06 03:11 | 29.92221 | -81.19238 | 40093 ft | 538 kts | 181° |
| 2026-05-06 03:12 | 29.84795 | -81.18279 | 40089 ft | 538 kts | 181° |
| 2026-05-06 03:12 | 29.77322 | -81.17313 | 40088 ft | 541 kts | 181° |
| 2026-05-06 03:13 | 29.69826 | -81.16345 | 40083 ft | 542 kts | 181° |
| 2026-05-06 03:13 | 29.66079 | -81.15861 | 39853 ft | 542 kts | 181° |
| 2026-05-06 03:13 | 29.62354 | -81.15379 | 39259 ft | 534 kts | 181° |
| 2026-05-06 03:13 | 29.58700 | -81.14903 | 38664 ft | 524 kts | 181° |
| 2026-05-06 03:14 | 29.55055 | -81.14435 | 37969 ft | 514 kts | 181° |
| 2026-05-06 03:14 | 29.51572 | -81.13993 | 37316 ft | 509 kts | 181° |
| 2026-05-06 03:14 | 29.48100 | -81.13551 | 36686 ft | 510 kts | 181° |
| 2026-05-06 03:14 | 29.44495 | -81.13092 | 36059 ft | 519 kts | 181° |
| 2026-05-06 03:15 | 29.40928 | -81.12633 | 35471 ft | 525 kts | 180° |
| 2026-05-06 03:15 | 29.37286 | -81.12161 | 34883 ft | 526 kts | 180° |
| 2026-05-06 03:15 | 29.33646 | -81.11691 | 34322 ft | 525 kts | 180° |
| 2026-05-06 03:15 | 29.30024 | -81.11240 | 33707 ft | 522 kts | 181° |
| 2026-05-06 03:16 | 29.26402 | -81.10945 | 32943 ft | 522 kts | 182° |
| 2026-05-06 03:16 | 29.22755 | -81.10681 | 32077 ft | 525 kts | 182° |
| 2026-05-06 03:16 | 29.19107 | -81.10388 | 31245 ft | 525 kts | 181° |
| 2026-05-06 03:16 | 29.15463 | -81.10078 | 30437 ft | 524 kts | 181° |
| 2026-05-06 03:17 | 29.11867 | -81.09790 | 29565 ft | 523 kts | 181° |
| 2026-05-06 03:17 | 29.08209 | -81.09510 | 28642 ft | 516 kts | 181° |
| 2026-05-06 03:17 | 29.04665 | -81.09229 | 27766 ft | 505 kts | 181° |
| 2026-05-06 03:17 | 29.01204 | -81.08947 | 26911 ft | 494 kts | 181° |
| 2026-05-06 03:18 | 28.97801 | -81.08676 | 26078 ft | 484 kts | 181° |
| 2026-05-06 03:18 | 28.94512 | -81.08421 | 25281 ft | 475 kts | 181° |
| 2026-05-06 03:18 | 28.91232 | -81.08162 | 24488 ft | 468 kts | 180° |
| 2026-05-06 03:18 | 28.88022 | -81.07905 | 23725 ft | 455 kts | 180° |
| 2026-05-06 03:19 | 28.84916 | -81.07656 | 22825 ft | 440 kts | 180° |
| 2026-05-06 03:19 | 28.81893 | -81.07420 | 21935 ft | 427 kts | 180° |
| 2026-05-06 03:19 | 28.78965 | -81.07191 | 21074 ft | 417 kts | 180° |
| 2026-05-06 03:19 | 28.76107 | -81.06965 | 20238 ft | 407 kts | 180° |
| 2026-05-06 03:20 | 28.70567 | -81.06529 | 18633 ft | 391 kts | 179° |
| 2026-05-06 03:20 | 28.67910 | -81.06335 | 17802 ft | 384 kts | 180° |
| 2026-05-06 03:20 | 28.65277 | -81.06155 | 17038 ft | 374 kts | 180° |
| 2026-05-06 03:21 | 28.62705 | -81.05987 | 16298 ft | 366 kts | 180° |
| 2026-05-06 03:21 | 28.60184 | -81.05830 | 15574 ft | 359 kts | 180° |
| 2026-05-06 03:21 | 28.57730 | -81.05435 | 14855 ft | 356 kts | 167° |
| 2026-05-06 03:21 | 28.55422 | -81.04465 | 14156 ft | 352 kts | 158° |
| 2026-05-06 03:22 | 28.53193 | -81.03361 | 13422 ft | 346 kts | 158° |
| 2026-05-06 03:22 | 28.50951 | -81.02426 | 12669 ft | 341 kts | 163° |
| 2026-05-06 03:22 | 28.48684 | -81.01668 | 11928 ft | 337 kts | 165° |
| 2026-05-06 03:22 | 28.46453 | -81.00872 | 11210 ft | 335 kts | 162° |
| 2026-05-06 03:23 | 28.44266 | -81.00010 | 10511 ft | 332 kts | 161° |
| 2026-05-06 03:23 | 28.42083 | -80.99167 | 9799 ft | 330 kts | 162° |
| 2026-05-06 03:23 | 28.39909 | -80.98360 | 9034 ft | 327 kts | 162° |
| 2026-05-06 03:23 | 28.37761 | -80.97557 | 8296 ft | 323 kts | 162° |
| 2026-05-06 03:24 | 28.35668 | -80.96766 | 7575 ft | 319 kts | 163° |
| 2026-05-06 03:24 | 28.33581 | -80.95979 | 6871 ft | 314 kts | 163° |
| 2026-05-06 03:24 | 28.31521 | -80.95204 | 6144 ft | 309 kts | 163° |
| 2026-05-06 03:24 | 28.29494 | -80.94445 | 5407 ft | 304 kts | 163° |
| 2026-05-06 03:25 | 28.27498 | -80.93694 | 4675 ft | 300 kts | 162° |
| 2026-05-06 03:25 | 28.25532 | -80.92954 | 3937 ft | 296 kts | 162° |
| 2026-05-06 03:25 | 28.23590 | -80.92227 | 3296 ft | 290 kts | 161° |
| 2026-05-06 03:25 | 28.21705 | -80.91519 | 2745 ft | 282 kts | 160° |
| 2026-05-06 03:26 | 28.19878 | -80.90833 | 2256 ft | 272 kts | 160° |
| 2026-05-06 03:26 | 28.18107 | -80.90170 | 1762 ft | 264 kts | 159° |
| 2026-05-06 03:26 | 28.16411 | -80.89533 | 1602 ft | 246 kts | 159° |
| 2026-05-06 03:26 | 28.14847 | -80.88946 | 1595 ft | 237 kts | 159° |
| 2026-05-06 03:27 | 28.13306 | -80.88288 | 1588 ft | 236 kts | 148° |
| 2026-05-06 03:27 | 28.12202 | -80.86956 | 1597 ft | 234 kts | 118° |
| 2026-05-06 03:27 | 28.11524 | -80.85344 | 1592 ft | 218 kts | 113° |
| 2026-05-06 03:27 | 28.10930 | -80.83837 | 1589 ft | 202 kts | 113° |
| 2026-05-06 03:28 | 28.10384 | -80.82427 | 1599 ft | 189 kts | 113° |
| 2026-05-06 03:28 | 28.09889 | -80.81095 | 1598 ft | 176 kts | 109° |
| 2026-05-06 03:28 | 28.09598 | -80.79815 | 1586 ft | 162 kts | 99° |
| 2026-05-06 03:28 | 28.09584 | -80.78571 | 1592 ft | 154 kts | 90° |
| 2026-05-06 03:29 | 28.09598 | -80.77359 | 1594 ft | 148 kts | 90° |
| 2026-05-06 03:29 | 28.09642 | -80.76282 | 1592 ft | 126 kts | 88° |
| 2026-05-06 03:29 | 28.09690 | -80.75334 | 1518 ft | 118 kts | 89° |
| 2026-05-06 03:29 | 28.09733 | -80.74389 | 1370 ft | 123 kts | 88° |
| 2026-05-06 03:30 | 28.09779 | -80.73419 | 1223 ft | 123 kts | 88° |
| 2026-05-06 03:30 | 28.09827 | -80.72445 | 1069 ft | 123 kts | 89° |
| 2026-05-06 03:30 | 28.09873 | -80.71477 | 926 ft | 123 kts | 89° |
| 2026-05-06 03:30 | 28.09915 | -80.70546 | 783 ft | 117 kts | 87° |
| 2026-05-06 03:31 | 28.09961 | -80.69630 | 644 ft | 115 kts | 87° |
| 2026-05-06 03:31 | 28.10007 | -80.68729 | 476 ft | 116 kts | 89° |
| 2026-05-06 03:31 | 28.10038 | -80.67822 | 371 ft | 113 kts | 87° |
| 2026-05-06 03:31 | 28.10086 | -80.66954 | 212 ft | 108 kts | 86° |
| 2026-05-06 03:32 | 28.10126 | -80.66128 | 81 ft | 101 kts | 87° |
| 2026-05-06 03:32 | 28.10161 | -80.65432 | 32 ft | 67 kts | 87° |
| 2026-05-06 03:32 | 28.10178 | -80.65061 | 32 ft | 39 kts | 87° |
| 2026-05-06 03:32 | 28.10193 | -80.64757 | 32 ft | 41 kts | 86° |
| 2026-05-06 03:33 | 28.10213 | -80.64357 | 28 ft | 61 kts | 87° |
| 2026-05-06 03:33 | 28.10238 | -80.63867 | 27 ft | 54 kts | 87° |
| 2026-05-06 03:33 | 28.10256 | -80.63509 | 28 ft | 38 kts | 85° |
| 2026-05-06 03:33 | 28.10267 | -80.63252 | 27 ft | 25 kts | 88° |
| 2026-05-06 03:34 | 28.10275 | -80.63113 | 27 ft | 14 kts | 84° |
| 2026-05-06 03:34 | 28.10309 | -80.63099 | 27 ft | 8 kts | 311° |
| 2026-05-06 03:34 | 28.10354 | -80.63157 | 27 ft | 10 kts | 310° |
| 2026-05-06 03:34 | 28.10394 | -80.63153 | 28 ft | 10 kts | 43° |
| 2026-05-06 03:35 | 28.10452 | -80.63085 | 28 ft | 14 kts | 47° |
| 2026-05-06 03:35 | 28.10528 | -80.62998 | 29 ft | 15 kts | 51° |
| 2026-05-06 03:35 | 28.10548 | -80.62955 | 25 ft | 4 kts | 30° |
| 2026-05-06 03:35 | 28.10562 | -80.62963 | 25 ft | 0 kts | 321° |